Valor — WDD8691 — position and weather

sailwx.info

Track history (hours):
 
Tides and Currents Weather Stations Pressure Air Temp Water Temp Dewpoint Dewpoint Depression Visibility Wind Speed Wind Dir Waves Ship Positions

Valor

More information available from US FCC via Universal Licensing System and Coast Guard Vessel Documentation Center.

Last reported at 2014-Aug-27 06:05 UTC. Time now 2014-Aug-27 17:12 UTC.
Position N 38°02' W 122°08'.

Length 8 m; draft 5.5 m.

Type: Tug. MMSI: 367301480.

Date/timePositionNaut miles runAvg speedWind from/ knotsBaromVisibWave heightAir tempDewpointWater temp
2014-Aug-27 06:05N 38°02' W 122°08'10 0.3
2014-Aug-25 21:27N 38°02' W 122°21'5 5.4
2014-Aug-25 20:33N 37°59' W 122°25'5 5.3
2014-Aug-25 19:33N 37°54' W 122°26'5 4.6
2014-Aug-25 18:33N 37°49' W 122°25'4 4.3
2014-Aug-25 17:34N 37°48' W 122°30'1 0.6
2014-Aug-25 16:31N 37°49' W 122°29'7 7.4
2014-Aug-25 15:33N 37°49' W 122°20'0 0.3
2014-Aug-25 14:33N 37°49' W 122°20'0 0.1
2014-Aug-25 13:33N 37°49' W 122°20'2 2.2
2014-Aug-25 12:33N 37°48' W 122°23'3 3.3
2014-Aug-25 11:33N 37°49' W 122°19'0 0.0
2014-Aug-25 10:33N 37°49' W 122°19'0 0.0
2014-Aug-25 09:34N 37°49' W 122°19'0 0.0
2014-Aug-25 08:34N 37°49' W 122°19'0 0.0
2014-Aug-25 07:34N 37°49' W 122°19'0 0.0
2014-Aug-25 06:33N 37°49' W 122°19'0 0.0
2014-Aug-25 05:33N 37°49' W 122°19'0 0.0
2014-Aug-25 04:33N 37°49' W 122°19'0 0.0
2014-Aug-25 03:33N 37°49' W 122°19'0 0.0
2014-Aug-25 02:33N 37°49' W 122°19'5 4.6
2014-Aug-25 01:33N 37°52' W 122°24'10 9.7
2014-Aug-25 00:33N 38°01' W 122°23'8 6.8
2014-Aug-24 23:27N 38°04' W 122°14'1 0.7
2014-Aug-24 22:20N 38°03' W 122°15'5 2.5
2014-Aug-24 20:32N 38°02' W 122°20'1010.0
2014-Aug-24 19:33N 37°53' W 122°25'8 7.8
2014-Aug-24 18:33N 37°48' W 122°18'0 0.3
2014-Aug-24 17:33N 37°48' W 122°19'2 1.6
2014-Aug-24 16:33N 37°49' W 122°19'0 0.0
2014-Aug-24 15:33N 37°49' W 122°19'0 0.0
2014-Aug-24 14:34N 37°49' W 122°19'0 0.0
2014-Aug-24 13:34N 37°49' W 122°19'0 0.0
2014-Aug-24 12:33N 37°49' W 122°19'0 0.0
2014-Aug-24 11:33N 37°49' W 122°19'0 0.0
2014-Aug-24 10:34N 37°49' W 122°19'0 0.0
2014-Aug-24 09:33N 37°49' W 122°19'0 0.0
2014-Aug-24 08:33N 37°49' W 122°19'0 0.0
2014-Aug-24 07:33N 37°49' W 122°19'0 0.0
2014-Aug-24 06:33N 37°49' W 122°19'0 0.0
2014-Aug-24 05:34N 37°49' W 122°19'0 0.0
2014-Aug-24 04:33N 37°49' W 122°19'0 0.0
2014-Aug-24 03:33N 37°49' W 122°19'0 0.0
2014-Aug-24 02:34N 37°49' W 122°19'0 0.0
2014-Aug-24 01:33N 37°49' W 122°19'0 0.0
2014-Aug-24 00:33N 37°49' W 122°19'0 0.0
2014-Aug-23 23:33N 37°49' W 122°19'0 0.0
2014-Aug-23 22:34N 37°49' W 122°19'0 0.0
2014-Aug-23 21:33N 37°49' W 122°19'0 0.0
2014-Aug-23 20:33N 37°49' W 122°19'5 5.3
2014-Aug-23 19:33N 37°52' W 122°24'5 0.3
2014-Aug-23 03:33N 37°49' W 122°19'2 1.6
2014-Aug-23 02:34N 37°48' W 122°19'2 1.6
2014-Aug-23 01:33N 37°49' W 122°19'0 0.0
2014-Aug-23 00:33N 37°49' W 122°19'0 0.0
2014-Aug-22 23:33N 37°49' W 122°19'0 0.0
2014-Aug-22 22:33N 37°49' W 122°19'0 0.0
2014-Aug-22 21:33N 37°49' W 122°19'0 0.0
2014-Aug-22 20:33N 37°49' W 122°19'0 0.0
2014-Aug-22 19:33N 37°49' W 122°19'0 0.0
2014-Aug-22 18:34N 37°49' W 122°19'0 0.0
2014-Aug-22 17:33N 37°49' W 122°19'1 0.9
2014-Aug-22 16:33N 37°49' W 122°19'0 0.4
2014-Aug-22 15:33N 37°49' W 122°19'1 0.5
2014-Aug-22 14:33N 37°49' W 122°19'0 0.1
2014-Aug-22 13:33N 37°49' W 122°19'2 1.6
2014-Aug-22 12:33N 37°48' W 122°19'2 1.3
2014-Aug-22 11:18N 37°48' W 122°21'4 5.3
2014-Aug-22 10:33N 37°51' W 122°24'1111.1
2014-Aug-22 09:33N 38°02' W 122°22'1010.3
2014-Aug-22 08:32N 38°02' W 122°09'2 0.5
2014-Aug-22 05:33N 38°03' W 122°11'5 4.7
2014-Aug-22 04:33N 38°03' W 122°17'5 4.6
2014-Aug-22 03:29N 38°02' W 122°22'7 7.0
2014-Aug-22 02:32N 37°55' W 122°25'0 0.1
2014-Aug-22 01:33N 37°55' W 122°25'8 7.7
2014-Aug-22 00:32N 38°02' W 122°21'2 0.2
2014-Aug-21 13:20N 38°03' W 122°18'7 8.6
2014-Aug-21 12:32N 37°59' W 122°25'4 4.0
2014-Aug-21 11:33N 37°55' W 122°25'0 0.0
2014-Aug-21 10:32N 37°55' W 122°25'0 0.0
2014-Aug-21 09:33N 37°55' W 122°25'0 0.0
2014-Aug-21 08:33N 37°55' W 122°25'0 0.0
2014-Aug-21 07:33N 37°55' W 122°25'0 0.0
2014-Aug-21 06:33N 37°55' W 122°25'0 0.0
2014-Aug-21 05:33N 37°55' W 122°25'0 0.0
2014-Aug-21 04:33N 37°55' W 122°25'0 0.0
2014-Aug-21 03:32N 37°55' W 122°25'0 0.0
2014-Aug-21 02:33N 37°55' W 122°25'0 0.0
2014-Aug-21 01:31N 37°55' W 122°25'0 0.0
2014-Aug-21 00:33N 37°55' W 122°25'0 0.0
2014-Aug-20 23:34N 37°55' W 122°25'0 0.0
2014-Aug-20 22:33N 37°55' W 122°25'0 0.0
2014-Aug-20 21:33N 37°55' W 122°25'8 8.2
2014-Aug-20 20:33N 37°48' W 122°20'1 1.2
2014-Aug-20 19:33N 37°48' W 122°19'1 1.4
2014-Aug-20 18:33N 37°49' W 122°20'1 0.9
2014-Aug-20 17:33N 37°49' W 122°19'1 1.2
2014-Aug-20 16:33N 37°49' W 122°20'7 7.1
2014-Aug-20 15:32N 37°48' W 122°29'4 4.0
2014-Aug-20 14:33N 37°51' W 122°25'8 7.6
2014-Aug-20 13:33N 37°58' W 122°26'3 0.4
2014-Aug-20 04:33N 38°01' W 122°24'9 9.0
2014-Aug-20 03:33N 37°52' W 122°24'5 4.9
2014-Aug-20 02:33N 37°49' W 122°19'0 0.0
2014-Aug-20 01:33N 37°49' W 122°19'0 0.0
2014-Aug-20 00:33N 37°49' W 122°19'0 0.0
2014-Aug-19 23:33N 37°49' W 122°19'0 0.0
2014-Aug-19 22:33N 37°49' W 122°19'0 0.0
2014-Aug-19 21:33N 37°49' W 122°19'4 3.9
2014-Aug-19 20:33N 37°46' W 122°21'4 3.6
2014-Aug-19 19:33N 37°49' W 122°24'8 8.3
2014-Aug-19 18:33N 37°47' W 122°34'4 4.1
2014-Aug-19 17:33N 37°49' W 122°29'8 8.2
2014-Aug-19 16:34N 37°49' W 122°19'0 0.2
2014-Aug-19 15:33N 37°49' W 122°19'0 0.0
2014-Aug-19 14:33N 37°49' W 122°19'2 1.7
2014-Aug-19 13:33N 37°48' W 122°20'1 0.8
2014-Aug-19 12:34N 37°49' W 122°20'1 0.8
2014-Aug-19 11:33N 37°48' W 122°20'0 0.1
2014-Aug-19 10:33N 37°48' W 122°20'2 1.6
2014-Aug-19 09:33N 37°50' W 122°22'9 8.0
2014-Aug-19 08:29N 37°57' W 122°26'8 8.7
2014-Aug-19 07:33N 38°03' W 122°18'8 0.5
2014-Aug-18 15:21N 38°02' W 122°08'0 0.0
2014-Aug-18 14:32N 38°02' W 122°08'8 5.6
2014-Aug-18 13:07N 38°03' W 122°18'5 9.4
2014-Aug-18 12:33N 38°01' W 122°24'9 9.1
2014-Aug-18 11:33N 37°52' W 122°25'6 5.6
2014-Aug-18 10:33N 37°48' W 122°30'2 1.7
2014-Aug-18 09:33N 37°49' W 122°28'8 7.7
2014-Aug-18 08:33N 37°49' W 122°19'0 0.0
2014-Aug-18 07:33N 37°49' W 122°19'0 0.0
2014-Aug-18 06:33N 37°49' W 122°19'0 0.0
2014-Aug-18 05:33N 37°49' W 122°19'0 0.0
2014-Aug-18 04:33N 37°49' W 122°19'0 0.0
2014-Aug-18 03:33N 37°49' W 122°19'0 0.0
2014-Aug-18 02:33N 37°49' W 122°19'2 2.0
2014-Aug-18 01:33N 37°48' W 122°17'1 1.3
2014-Aug-18 00:34N 37°48' W 122°19'2 0.3
2014-Aug-17 18:33N 37°49' W 122°19'0 0.0
2014-Aug-17 17:33N 37°49' W 122°19'0 0.0
2014-Aug-17 16:33N 37°49' W 122°19'0 0.0
2014-Aug-17 15:33N 37°49' W 122°19'0 0.0
2014-Aug-17 14:33N 37°49' W 122°19'2 2.1
2014-Aug-17 13:33N 37°48' W 122°21'2 2.1
2014-Aug-17 12:33N 37°49' W 122°19'0 0.0
2014-Aug-17 11:33N 37°49' W 122°19'0 0.0
2014-Aug-17 10:33N 37°49' W 122°19'0 0.0
2014-Aug-17 09:33N 37°49' W 122°19'0 0.0
2014-Aug-17 08:33N 37°49' W 122°19'0 0.0
2014-Aug-17 07:33N 37°49' W 122°19'0 0.0
2014-Aug-17 06:33N 37°49' W 122°19'  
Track history (hours):
 
Tides and Currents Weather Stations Pressure Air Temp Water Temp Dewpoint Dewpoint Depression Visibility Wind Speed Wind Dir Waves Ship Positions

Valor

More information available from US FCC via Universal Licensing System and Coast Guard Vessel Documentation Center.

Last reported at 2014-Aug-27 06:05 UTC. Time now 2014-Aug-27 17:12 UTC.
Position N 38°02' W 122°08'.

Length 8 m; draft 5.5 m.

Type: Tug. MMSI: 367301480.

Date/timePositionNaut miles runAvg speedWind from/ knotsBaromVisibWave heightAir tempDewpointWater temp
2014-Aug-27 06:05N 38°02' W 122°08'10 0.3
2014-Aug-25 21:27N 38°02' W 122°21'5 5.4
2014-Aug-25 20:33N 37°59' W 122°25'5 5.3
2014-Aug-25 19:33N 37°54' W 122°26'5 4.6
2014-Aug-25 18:33N 37°49' W 122°25'4 4.3
2014-Aug-25 17:34N 37°48' W 122°30'1 0.6
2014-Aug-25 16:31N 37°49' W 122°29'7 7.4
2014-Aug-25 15:33N 37°49' W 122°20'0 0.3
2014-Aug-25 14:33N 37°49' W 122°20'0 0.1
2014-Aug-25 13:33N 37°49' W 122°20'2 2.2
2014-Aug-25 12:33N 37°48' W 122°23'3 3.3
2014-Aug-25 11:33N 37°49' W 122°19'0 0.0
2014-Aug-25 10:33N 37°49' W 122°19'0 0.0
2014-Aug-25 09:34N 37°49' W 122°19'0 0.0
2014-Aug-25 08:34N 37°49' W 122°19'0 0.0
2014-Aug-25 07:34N 37°49' W 122°19'0 0.0
2014-Aug-25 06:33N 37°49' W 122°19'0 0.0
2014-Aug-25 05:33N 37°49' W 122°19'0 0.0
2014-Aug-25 04:33N 37°49' W 122°19'0 0.0
2014-Aug-25 03:33N 37°49' W 122°19'0 0.0
2014-Aug-25 02:33N 37°49' W 122°19'5 4.6
2014-Aug-25 01:33N 37°52' W 122°24'10 9.7
2014-Aug-25 00:33N 38°01' W 122°23'8 6.8
2014-Aug-24 23:27N 38°04' W 122°14'1 0.7
2014-Aug-24 22:20N 38°03' W 122°15'5 2.5
2014-Aug-24 20:32N 38°02' W 122°20'1010.0
2014-Aug-24 19:33N 37°53' W 122°25'8 7.8
2014-Aug-24 18:33N 37°48' W 122°18'0 0.3
2014-Aug-24 17:33N 37°48' W 122°19'2 1.6
2014-Aug-24 16:33N 37°49' W 122°19'0 0.0
2014-Aug-24 15:33N 37°49' W 122°19'0 0.0
2014-Aug-24 14:34N 37°49' W 122°19'0 0.0
2014-Aug-24 13:34N 37°49' W 122°19'0 0.0
2014-Aug-24 12:33N 37°49' W 122°19'0 0.0
2014-Aug-24 11:33N 37°49' W 122°19'0 0.0
2014-Aug-24 10:34N 37°49' W 122°19'0 0.0
2014-Aug-24 09:33N 37°49' W 122°19'0 0.0
2014-Aug-24 08:33N 37°49' W 122°19'0 0.0
2014-Aug-24 07:33N 37°49' W 122°19'0 0.0
2014-Aug-24 06:33N 37°49' W 122°19'0 0.0
2014-Aug-24 05:34N 37°49' W 122°19'0 0.0
2014-Aug-24 04:33N 37°49' W 122°19'0 0.0
2014-Aug-24 03:33N 37°49' W 122°19'0 0.0
2014-Aug-24 02:34N 37°49' W 122°19'0 0.0
2014-Aug-24 01:33N 37°49' W 122°19'0 0.0
2014-Aug-24 00:33N 37°49' W 122°19'0 0.0
2014-Aug-23 23:33N 37°49' W 122°19'0 0.0
2014-Aug-23 22:34N 37°49' W 122°19'0 0.0
2014-Aug-23 21:33N 37°49' W 122°19'0 0.0
2014-Aug-23 20:33N 37°49' W 122°19'5 5.3
2014-Aug-23 19:33N 37°52' W 122°24'5 0.3
2014-Aug-23 03:33N 37°49' W 122°19'2 1.6
2014-Aug-23 02:34N 37°48' W 122°19'2 1.6
2014-Aug-23 01:33N 37°49' W 122°19'0 0.0
2014-Aug-23 00:33N 37°49' W 122°19'0 0.0
2014-Aug-22 23:33N 37°49' W 122°19'0 0.0
2014-Aug-22 22:33N 37°49' W 122°19'0 0.0
2014-Aug-22 21:33N 37°49' W 122°19'0 0.0
2014-Aug-22 20:33N 37°49' W 122°19'0 0.0
2014-Aug-22 19:33N 37°49' W 122°19'0 0.0
2014-Aug-22 18:34N 37°49' W 122°19'0 0.0
2014-Aug-22 17:33N 37°49' W 122°19'1 0.9
2014-Aug-22 16:33N 37°49' W 122°19'0 0.4
2014-Aug-22 15:33N 37°49' W 122°19'1 0.5
2014-Aug-22 14:33N 37°49' W 122°19'0 0.1
2014-Aug-22 13:33N 37°49' W 122°19'2 1.6
2014-Aug-22 12:33N 37°48' W 122°19'2 1.3
2014-Aug-22 11:18N 37°48' W 122°21'4 5.3
2014-Aug-22 10:33N 37°51' W 122°24'1111.1
2014-Aug-22 09:33N 38°02' W 122°22'1010.3
2014-Aug-22 08:32N 38°02' W 122°09'2 0.5
2014-Aug-22 05:33N 38°03' W 122°11'5 4.7
2014-Aug-22 04:33N 38°03' W 122°17'5 4.6
2014-Aug-22 03:29N 38°02' W 122°22'7 7.0
2014-Aug-22 02:32N 37°55' W 122°25'0 0.1
2014-Aug-22 01:33N 37°55' W 122°25'8 7.7
2014-Aug-22 00:32N 38°02' W 122°21'2 0.2
2014-Aug-21 13:20N 38°03' W 122°18'7 8.6
2014-Aug-21 12:32N 37°59' W 122°25'4 4.0
2014-Aug-21 11:33N 37°55' W 122°25'0 0.0
2014-Aug-21 10:32N 37°55' W 122°25'0 0.0
2014-Aug-21 09:33N 37°55' W 122°25'0 0.0
2014-Aug-21 08:33N 37°55' W 122°25'0 0.0
2014-Aug-21 07:33N 37°55' W 122°25'0 0.0
2014-Aug-21 06:33N 37°55' W 122°25'0 0.0
2014-Aug-21 05:33N 37°55' W 122°25'0 0.0
2014-Aug-21 04:33N 37°55' W 122°25'0 0.0
2014-Aug-21 03:32N 37°55' W 122°25'0 0.0
2014-Aug-21 02:33N 37°55' W 122°25'0 0.0
2014-Aug-21 01:31N 37°55' W 122°25'0 0.0
2014-Aug-21 00:33N 37°55' W 122°25'0 0.0
2014-Aug-20 23:34N 37°55' W 122°25'0 0.0
2014-Aug-20 22:33N 37°55' W 122°25'0 0.0
2014-Aug-20 21:33N 37°55' W 122°25'8 8.2
2014-Aug-20 20:33N 37°48' W 122°20'1 1.2
2014-Aug-20 19:33N 37°48' W 122°19'1 1.4
2014-Aug-20 18:33N 37°49' W 122°20'1 0.9
2014-Aug-20 17:33N 37°49' W 122°19'1 1.2
2014-Aug-20 16:33N 37°49' W 122°20'7 7.1
2014-Aug-20 15:32N 37°48' W 122°29'4 4.0
2014-Aug-20 14:33N 37°51' W 122°25'8 7.6
2014-Aug-20 13:33N 37°58' W 122°26'3 0.4
2014-Aug-20 04:33N 38°01' W 122°24'9 9.0
2014-Aug-20 03:33N 37°52' W 122°24'5 4.9
2014-Aug-20 02:33N 37°49' W 122°19'0 0.0
2014-Aug-20 01:33N 37°49' W 122°19'0 0.0
2014-Aug-20 00:33N 37°49' W 122°19'0 0.0
2014-Aug-19 23:33N 37°49' W 122°19'0 0.0
2014-Aug-19 22:33N 37°49' W 122°19'0 0.0
2014-Aug-19 21:33N 37°49' W 122°19'4 3.9
2014-Aug-19 20:33N 37°46' W 122°21'4 3.6
2014-Aug-19 19:33N 37°49' W 122°24'8 8.3
2014-Aug-19 18:33N 37°47' W 122°34'4 4.1
2014-Aug-19 17:33N 37°49' W 122°29'8 8.2
2014-Aug-19 16:34N 37°49' W 122°19'0 0.2
2014-Aug-19 15:33N 37°49' W 122°19'0 0.0
2014-Aug-19 14:33N 37°49' W 122°19'2 1.7
2014-Aug-19 13:33N 37°48' W 122°20'1 0.8
2014-Aug-19 12:34N 37°49' W 122°20'1 0.8
2014-Aug-19 11:33N 37°48' W 122°20'0 0.1
2014-Aug-19 10:33N 37°48' W 122°20'2 1.6
2014-Aug-19 09:33N 37°50' W 122°22'9 8.0
2014-Aug-19 08:29N 37°57' W 122°26'8 8.7
2014-Aug-19 07:33N 38°03' W 122°18'8 0.5
2014-Aug-18 15:21N 38°02' W 122°08'0 0.0
2014-Aug-18 14:32N 38°02' W 122°08'8 5.6
2014-Aug-18 13:07N 38°03' W 122°18'5 9.4
2014-Aug-18 12:33N 38°01' W 122°24'9 9.1
2014-Aug-18 11:33N 37°52' W 122°25'6 5.6
2014-Aug-18 10:33N 37°48' W 122°30'2 1.7
2014-Aug-18 09:33N 37°49' W 122°28'8 7.7
2014-Aug-18 08:33N 37°49' W 122°19'0 0.0
2014-Aug-18 07:33N 37°49' W 122°19'0 0.0
2014-Aug-18 06:33N 37°49' W 122°19'0 0.0
2014-Aug-18 05:33N 37°49' W 122°19'0 0.0
2014-Aug-18 04:33N 37°49' W 122°19'0 0.0
2014-Aug-18 03:33N 37°49' W 122°19'0 0.0
2014-Aug-18 02:33N 37°49' W 122°19'2 2.0
2014-Aug-18 01:33N 37°48' W 122°17'1 1.3
2014-Aug-18 00:34N 37°48' W 122°19'2 0.3
2014-Aug-17 18:33N 37°49' W 122°19'0 0.0
2014-Aug-17 17:33N 37°49' W 122°19'0 0.0
2014-Aug-17 16:33N 37°49' W 122°19'0 0.0
2014-Aug-17 15:33N 37°49' W 122°19'0 0.0
2014-Aug-17 14:33N 37°49' W 122°19'2 2.1
2014-Aug-17 13:33N 37°48' W 122°21'2 2.1
2014-Aug-17 12:33N 37°49' W 122°19'0 0.0
2014-Aug-17 11:33N 37°49' W 122°19'0 0.0
2014-Aug-17 10:33N 37°49' W 122°19'0 0.0
2014-Aug-17 09:33N 37°49' W 122°19'0 0.0
2014-Aug-17 08:33N 37°49' W 122°19'0 0.0
2014-Aug-17 07:33N 37°49' W 122°19'0 0.0
2014-Aug-17 06:33N 37°49' W 122°19'  

Dump ship's entire track history